Wetterdaten: Mittwoch, 18.02.2009
Datum Zeit Temp. A. Feuchte A. Luftdruck Regen Wind Richtung Richtung Sonnenschein UV Solar Windben
18.02.2009 00:00 -4,3 C 88 % 1027,7 hPa 0,0 mm 0,0 km/h (0 Bft) N 0 0 min 0 UV-I 0 W/m 0,0 km/h (0 Bft)
18.02.2009 00:10 -4,3 C 88 % 1027,7 hPa 0,0 mm 0,0 km/h (0 Bft) N 0 0 min 0 UV-I 0 W/m 0,0 km/h (0 Bft)
18.02.2009 00:20 -4,4 C 88 % 1027,9 hPa 0,0 mm 0,0 km/h (0 Bft) N 0 0 min 0 UV-I 0 W/m 0,0 km/h (0 Bft)
18.02.2009 00:30 -4,5 C 88 % 1027,9 hPa 0,0 mm 0,0 km/h (0 Bft) N 0 0 min 0 UV-I 0 W/m 0,0 km/h (0 Bft)
18.02.2009 00:40 -4,6 C 88 % 1027,9 hPa 0,0 mm 0,0 km/h (0 Bft) N 0 0 min 0 UV-I 0 W/m 0,0 km/h (0 Bft)
18.02.2009 00:50 -4,7 C 88 % 1028,0 hPa 0,0 mm 0,0 km/h (0 Bft) N 0 0 min 0 UV-I 0 W/m 0,0 km/h (0 Bft)
18.02.2009 01:00 -4,8 C 88 % 1028,0 hPa 0,0 mm 0,0 km/h (0 Bft) O 90 0 min 0 UV-I 0 W/m 1,6 km/h (1 Bft)
18.02.2009 01:10 -4,9 C 88 % 1027,9 hPa 0,0 mm 0,0 km/h (0 Bft) O 90 0 min 0 UV-I 0 W/m 1,6 km/h (1 Bft)
18.02.2009 01:20 -5,0 C 88 % 1028,0 hPa 0,0 mm 0,0 km/h (0 Bft) N 0 0 min 0 UV-I 0 W/m 0,0 km/h (0 Bft)
18.02.2009 01:30 -5,1 C 88 % 1028,0 hPa 0,0 mm 0,0 km/h (0 Bft) O 90 0 min 0 UV-I 0 W/m 1,6 km/h (1 Bft)
18.02.2009 01:40 -5,2 C 88 % 1028,1 hPa 0,0 mm 0,0 km/h (0 Bft) O 90 0 min 0 UV-I 0 W/m 1,6 km/h (1 Bft)
18.02.2009 01:50 -5,3 C 88 % 1028,1 hPa 0,0 mm 0,0 km/h (0 Bft) N 0 0 min 0 UV-I 0 W/m 0,0 km/h (0 Bft)
18.02.2009 02:00 -5,3 C 88 % 1028,1 hPa 0,0 mm 0,0 km/h (0 Bft) O 90 0 min 0 UV-I 0 W/m 1,6 km/h (1 Bft)
18.02.2009 02:10 -5,4 C 88 % 1028,1 hPa 0,0 mm 0,0 km/h (0 Bft) N 0 0 min 0 UV-I 0 W/m 0,0 km/h (0 Bft)
18.02.2009 02:20 -5,5 C 88 % 1028,2 hPa 0,0 mm 0,0 km/h (0 Bft) N 0 0 min 0 UV-I 0 W/m 0,0 km/h (0 Bft)
18.02.2009 02:30 -5,6 C 88 % 1028,2 hPa 0,0 mm 0,0 km/h (0 Bft) N 0 0 min 0 UV-I 0 W/m 0,0 km/h (0 Bft)
18.02.2009 02:40 -5,7 C 88 % 1028,1 hPa 0,0 mm 0,0 km/h (0 Bft) O 90 0 min 0 UV-I 0 W/m 3,2 km/h (1 Bft)
18.02.2009 02:50 -5,7 C 89 % 1028,0 hPa 0,0 mm 0,0 km/h (0 Bft) O 90 0 min 0 UV-I 0 W/m 1,6 km/h (1 Bft)
18.02.2009 03:00 -5,8 C 89 % 1028,0 hPa 0,0 mm 0,0 km/h (0 Bft) N 0 0 min 0 UV-I 0 W/m 0,0 km/h (0 Bft)
18.02.2009 03:10 -5,8 C 89 % 1027,9 hPa 0,0 mm 0,0 km/h (0 Bft) O 90 0 min 0 UV-I 0 W/m 1,6 km/h (1 Bft)
18.02.2009 03:20 -5,9 C 88 % 1027,9 hPa 0,0 mm 0,0 km/h (0 Bft) N 0 0 min 0 UV-I 0 W/m 0,0 km/h (0 Bft)
18.02.2009 03:30 -6,0 C 88 % 1027,8 hPa 0,0 mm 0,0 km/h (0 Bft) N 0 0 min 0 UV-I 0 W/m 0,0 km/h (0 Bft)
18.02.2009 03:40 -6,1 C 88 % 1027,8 hPa 0,0 mm 0,0 km/h (0 Bft) N 0 0 min 0 UV-I 0 W/m 0,0 km/h (0 Bft)
18.02.2009 03:50 -6,1 C 89 % 1027,9 hPa 0,0 mm 0,0 km/h (0 Bft) N 0 0 min 0 UV-I 0 W/m 0,0 km/h (0 Bft)
18.02.2009 04:00 -6,2 C 89 % 1027,8 hPa 0,0 mm 0,0 km/h (0 Bft) O 90 0 min 0 UV-I 0 W/m 1,6 km/h (1 Bft)
18.02.2009 04:10 -6,3 C 88 % 1027,8 hPa 0,0 mm 0,0 km/h (0 Bft) O 90 0 min 0 UV-I 0 W/m 1,6 km/h (1 Bft)
18.02.2009 04:20 -6,4 C 89 % 1027,9 hPa 0,0 mm 0,0 km/h (0 Bft) O 90 0 min 0 UV-I 0 W/m 1,6 km/h (1 Bft)
18.02.2009 04:30 -6,4 C 89 % 1027,9 hPa 0,0 mm 0,0 km/h (0 Bft) O 90 0 min 0 UV-I 0 W/m 1,6 km/h (1 Bft)
18.02.2009 04:40 -6,4 C 89 % 1027,9 hPa 0,0 mm 0,0 km/h (0 Bft) O 90 0 min 0 UV-I 0 W/m 1,6 km/h (1 Bft)
18.02.2009 04:50 -6,5 C 89 % 1028,0 hPa 0,0 mm 0,0 km/h (0 Bft) O 90 0 min 0 UV-I 0 W/m 1,6 km/h (1 Bft)
18.02.2009 05:00 -6,6 C 89 % 1027,9 hPa 0,0 mm 0,0 km/h (0 Bft) N 0 0 min 0 UV-I 0 W/m 0,0 km/h (0 Bft)
18.02.2009 05:10 -6,6 C 89 % 1028,0 hPa 0,0 mm 0,0 km/h (0 Bft) O 90 0 min 0 UV-I 0 W/m 1,6 km/h (1 Bft)
18.02.2009 05:20 -6,7 C 89 % 1028,0 hPa 0,0 mm 0,0 km/h (0 Bft) N 0 0 min 0 UV-I 0 W/m 0,0 km/h (0 Bft)
18.02.2009 05:30 -6,7 C 89 % 1027,9 hPa 0,0 mm 0,0 km/h (0 Bft) O 90 0 min 0 UV-I 0 W/m 3,2 km/h (1 Bft)
18.02.2009 05:40 -6,8 C 89 % 1028,0 hPa 0,0 mm 0,0 km/h (0 Bft) N 0 0 min 0 UV-I 0 W/m 0,0 km/h (0 Bft)
18.02.2009 05:50 -6,8 C 89 % 1028,1 hPa 0,0 mm 0,0 km/h (0 Bft) N 0 0 min 0 UV-I 0 W/m 0,0 km/h (0 Bft)
18.02.2009 06:00 -6,8 C 89 % 1028,1 hPa 0,0 mm 0,0 km/h (0 Bft) N 0 0 min 0 UV-I 0 W/m 0,0 km/h (0 Bft)
18.02.2009 06:10 -6,8 C 89 % 1028,2 hPa 0,0 mm 0,0 km/h (0 Bft) N 0 0 min 0 UV-I 0 W/m 0,0 km/h (0 Bft)
18.02.2009 06:20 -6,9 C 89 % 1028,3 hPa 0,0 mm 0,0 km/h (0 Bft) N 0 0 min 0 UV-I 0 W/m 0,0 km/h (0 Bft)
18.02.2009 06:30 -7,0 C 89 % 1028,3 hPa 0,0 mm 0,0 km/h (0 Bft) N 0 0 min 0 UV-I 0 W/m 0,0 km/h (0 Bft)
18.02.2009 06:40 -7,1 C 89 % 1028,2 hPa 0,0 mm 0,0 km/h (0 Bft) N 0 0 min 0 UV-I 0 W/m 0,0 km/h (0 Bft)
18.02.2009 06:50 -7,2 C 89 % 1028,3 hPa 0,0 mm 0,0 km/h (0 Bft) O 90 0 min 0 UV-I 0 W/m 1,6 km/h (1 Bft)
18.02.2009 07:00 -7,2 C 89 % 1028,4 hPa 0,0 mm 0,0 km/h (0 Bft) N 0 0 min 0 UV-I 0 W/m 0,0 km/h (0 Bft)
18.02.2009 07:10 -7,3 C 89 % 1028,4 hPa 0,0 mm 0,0 km/h (0 Bft) N 0 0 min 0 UV-I 0 W/m 0,0 km/h (0 Bft)
18.02.2009 07:20 -7,3 C 89 % 1028,5 hPa 0,0 mm 0,0 km/h (0 Bft) N 0 0 min 0 UV-I 0 W/m 0,0 km/h (0 Bft)
18.02.2009 07:30 -7,4 C 89 % 1028,5 hPa 0,0 mm 0,0 km/h (0 Bft) N 0 0 min 0 UV-I 0 W/m 0,0 km/h (0 Bft)
18.02.2009 07:40 -7,4 C 89 % 1028,5 hPa 0,0 mm 0,0 km/h (0 Bft) N 0 0 min 0 UV-I 5 W/m 0,0 km/h (0 Bft)
18.02.2009 07:50 -7,5 C 89 % 1028,5 hPa 0,0 mm 0,0 km/h (0 Bft) N 0 0 min 0 UV-I 9 W/m 0,0 km/h (0 Bft)
18.02.2009 08:00 -7,5 C 89 % 1028,5 hPa 0,0 mm 0,0 km/h (0 Bft) O 98 0 min 0 UV-I 12 W/m 0,0 km/h (0 Bft)
18.02.2009 08:10 -7,5 C 89 % 1028,6 hPa 0,0 mm 0,0 km/h (0 Bft) N 0 0 min 0 UV-I 16 W/m 0,0 km/h (0 Bft)
18.02.2009 08:20 -7,4 C 89 % 1028,7 hPa 0,0 mm 0,0 km/h (0 Bft) N 0 0 min 0 UV-I 26 W/m 0,0 km/h (0 Bft)
18.02.2009 08:30 -7,3 C 90 % 1028,8 hPa 0,0 mm 0,0 km/h (0 Bft) O 90 0 min 0 UV-I 35 W/m 1,6 km/h (1 Bft)
18.02.2009 08:40 -7,2 C 90 % 1028,8 hPa 0,0 mm 0,0 km/h (0 Bft) N 0 0 min 0 UV-I 39 W/m 0,0 km/h (0 Bft)
18.02.2009 08:50 -6,9 C 90 % 1028,8 hPa 0,0 mm 0,0 km/h (0 Bft) N 0 0 min 0 UV-I 49 W/m 0,0 km/h (0 Bft)
18.02.2009 09:00 -6,8 C 91 % 1028,8 hPa 0,0 mm 0,0 km/h (0 Bft) O 90 0 min 0 UV-I 69 W/m 1,6 km/h (1 Bft)
18.02.2009 09:10 -6,3 C 91 % 1028,7 hPa 0,0 mm 0,0 km/h (0 Bft) O 90 10 min 0 UV-I 125 W/m 3,2 km/h (1 Bft)
18.02.2009 09:20 -5,3 C 91 % 1028,7 hPa 0,0 mm 0,0 km/h (0 Bft) O 90 10 min 0 UV-I 202 W/m 3,2 km/h (1 Bft)
18.02.2009 09:30 -4,6 C 90 % 1028,7 hPa 0,0 mm 1,6 km/h (1 Bft) O 90 10 min 0 UV-I 234 W/m 4,8 km/h (1 Bft)
18.02.2009 09:40 -3,9 C 89 % 1028,8 hPa 0,0 mm 0,0 km/h (0 Bft) O 90 10 min 1 UV-I 322 W/m 3,2 km/h (1 Bft)
18.02.2009 09:50 -3,5 C 87 % 1028,8 hPa 0,0 mm 1,6 km/h (1 Bft) O 90 10 min 1 UV-I 417 W/m 4,8 km/h (1 Bft)
18.02.2009 10:00 -3,2 C 87 % 1028,7 hPa 0,0 mm 0,0 km/h (0 Bft) O 90 10 min 1 UV-I 420 W/m 3,2 km/h (1 Bft)
18.02.2009 10:10 -2,8 C 84 % 1028,7 hPa 0,0 mm 1,6 km/h (1 Bft) O-SO 112 10 min 1 UV-I 341 W/m 4,8 km/h (1 Bft)
18.02.2009 10:20 -2,4 C 84 % 1028,7 hPa 0,0 mm 1,6 km/h (1 Bft) O-SO 112 10 min 1 UV-I 360 W/m 6,4 km/h (2 Bft)
18.02.2009 10:30 -2,1 C 82 % 1028,7 hPa 0,0 mm 1,6 km/h (1 Bft) S-SO 157 10 min 1 UV-I 392 W/m 4,8 km/h (1 Bft)
18.02.2009 10:40 -1,8 C 81 % 1028,7 hPa 0,0 mm 0,0 km/h (0 Bft) O 90 10 min 1 UV-I 406 W/m 4,8 km/h (1 Bft)
18.02.2009 10:50 -1,6 C 81 % 1028,6 hPa 0,0 mm 1,6 km/h (1 Bft) O-NO 67 10 min 1 UV-I 404 W/m 3,2 km/h (1 Bft)
18.02.2009 11:00 -1,2 C 80 % 1028,5 hPa 0,0 mm 1,6 km/h (1 Bft) O 90 10 min 1 UV-I 431 W/m 4,8 km/h (1 Bft)
18.02.2009 11:10 -0,9 C 78 % 1028,6 hPa 0,0 mm 0,0 km/h (0 Bft) O 90 10 min 1 UV-I 443 W/m 4,8 km/h (1 Bft)
18.02.2009 11:20 -0,7 C 75 % 1028,5 hPa 0,0 mm 1,6 km/h (1 Bft) SW 225 10 min 1 UV-I 452 W/m 4,8 km/h (1 Bft)
18.02.2009 11:30 -0,6 C 73 % 1028,4 hPa 0,0 mm 1,6 km/h (1 Bft) O 90 10 min 1 UV-I 476 W/m 4,8 km/h (1 Bft)
18.02.2009 11:40 -0,2 C 69 % 1028,4 hPa 0,0 mm 1,6 km/h (1 Bft) O 90 10 min 1 UV-I 492 W/m 3,2 km/h (1 Bft)
18.02.2009 11:50 -0,4 C 68 % 1028,3 hPa 0,0 mm 1,6 km/h (1 Bft) S-SW 202 10 min 1 UV-I 503 W/m 4,8 km/h (1 Bft)
18.02.2009 12:00 -0,1 C 69 % 1028,1 hPa 0,0 mm 1,6 km/h (1 Bft) W-SW 247 10 min 1 UV-I 522 W/m 6,4 km/h (2 Bft)
18.02.2009 12:10 0,4 C 66 % 1028,1 hPa 0,0 mm 1,6 km/h (1 Bft) W 270 10 min 1 UV-I 538 W/m 4,8 km/h (1 Bft)
18.02.2009 12:20 0,4 C 69 % 1027,9 hPa 0,0 mm 1,6 km/h (1 Bft) S 180 10 min 1 UV-I 555 W/m 8,0 km/h (2 Bft)
18.02.2009 12:30 1,2 C 68 % 1027,8 hPa 0,0 mm 1,6 km/h (1 Bft) O 90 10 min 1 UV-I 552 W/m 4,8 km/h (1 Bft)
18.02.2009 12:40 1,0 C 66 % 1027,8 hPa 0,0 mm 1,6 km/h (1 Bft) N-NO 22 10 min 1 UV-I 552 W/m 8,0 km/h (2 Bft)
18.02.2009 12:50 0,9 C 63 % 1027,8 hPa 0,0 mm 1,6 km/h (1 Bft) O-NO 67 10 min 1 UV-I 566 W/m 6,4 km/h (2 Bft)
18.02.2009 13:00 1,2 C 63 % 1027,7 hPa 0,0 mm 1,6 km/h (1 Bft) N-NO 22 10 min 1 UV-I 561 W/m 4,8 km/h (1 Bft)
18.02.2009 13:10 1,1 C 64 % 1027,6 hPa 0,0 mm 1,6 km/h (1 Bft) N-NO 22 10 min 1 UV-I 554 W/m 6,4 km/h (2 Bft)
18.02.2009 13:20 1,1 C 63 % 1027,4 hPa 0,0 mm 1,6 km/h (1 Bft) N-NW 337 10 min 1 UV-I 552 W/m 6,4 km/h (2 Bft)
18.02.2009 13:30 1,2 C 63 % 1027,3 hPa 0,0 mm 1,6 km/h (1 Bft) N 360 10 min 1 UV-I 559 W/m 6,4 km/h (2 Bft)
18.02.2009 13:40 0,9 C 61 % 1027,1 hPa 0,0 mm 1,6 km/h (1 Bft) W-NW 292 10 min 1 UV-I 520 W/m 6,4 km/h (2 Bft)
18.02.2009 13:50 1,4 C 60 % 1027,0 hPa 0,0 mm 1,6 km/h (1 Bft) O 90 10 min 1 UV-I 494 W/m 4,8 km/h (1 Bft)
18.02.2009 14:00 2,1 C 62 % 1026,9 hPa 0,0 mm 1,6 km/h (1 Bft) S-SW 202 10 min 1 UV-I 483 W/m 6,4 km/h (2 Bft)
18.02.2009 14:10 2,2 C 57 % 1026,9 hPa 0,0 mm 1,6 km/h (1 Bft) O-SO 112 10 min 1 UV-I 476 W/m 4,8 km/h (1 Bft)
18.02.2009 14:20 2,1 C 60 % 1026,8 hPa 0,0 mm 1,6 km/h (1 Bft) NO 45 10 min 1 UV-I 464 W/m 4,8 km/h (1 Bft)
18.02.2009 14:30 2,0 C 53 % 1026,8 hPa 0,0 mm 1,6 km/h (1 Bft) O-SO 112 10 min 1 UV-I 411 W/m 6,4 km/h (2 Bft)
18.02.2009 14:40 1,9 C 55 % 1026,6 hPa 0,0 mm 1,6 km/h (1 Bft) O-SO 112 10 min 1 UV-I 397 W/m 6,4 km/h (2 Bft)
18.02.2009 14:50 2,0 C 51 % 1026,6 hPa 0,0 mm 1,6 km/h (1 Bft) O 90 10 min 1 UV-I 332 W/m 6,4 km/h (2 Bft)
18.02.2009 15:00 1,8 C 53 % 1026,5 hPa 0,0 mm 1,6 km/h (1 Bft) S-SW 202 10 min 1 UV-I 336 W/m 6,4 km/h (2 Bft)
18.02.2009 15:10 1,8 C 54 % 1026,4 hPa 0,0 mm 1,6 km/h (1 Bft) S-SO 157 10 min 1 UV-I 216 W/m 8,0 km/h (2 Bft)
18.02.2009 15:20 1,7 C 52 % 1026,5 hPa 0,0 mm 1,6 km/h (1 Bft) O 90 10 min 1 UV-I 230 W/m 6,4 km/h (2 Bft)
18.02.2009 15:30 1,7 C 55 % 1026,6 hPa 0,0 mm 1,6 km/h (1 Bft) N-NO 22 10 min 1 UV-I 258 W/m 8,0 km/h (2 Bft)
18.02.2009 15:40 1,5 C 55 % 1026,6 hPa 0,0 mm 1,6 km/h (1 Bft) O 90 10 min 1 UV-I 257 W/m 4,8 km/h (1 Bft)
18.02.2009 15:50 1,4 C 55 % 1026,5 hPa 0,0 mm 1,6 km/h (1 Bft) S-SO 157 10 min 0 UV-I 178 W/m 8,0 km/h (2 Bft)
18.02.2009 16:00 1,5 C 55 % 1026,2 hPa 0,0 mm 1,4 km/h (1 Bft) W-NW 292 0 min 0 UV-I 113 W/m 4,8 km/h (1 Bft)
18.02.2009 16:10 1,3 C 56 % 1026,1 hPa 0,0 mm 1,6 km/h (1 Bft) O-SO 112 10 min 0 UV-I 181 W/m 6,4 km/h (2 Bft)
18.02.2009 16:20 1,4 C 55 % 1026,3 hPa 0,0 mm 0,0 km/h (0 Bft) O-SO 112 10 min 0 UV-I 188 W/m 3,2 km/h (1 Bft)
18.02.2009 16:30 1,3 C 54 % 1026,4 hPa 0,0 mm 0,0 km/h (0 Bft) O-SO 112 10 min 0 UV-I 183 W/m 1,6 km/h (1 Bft)
18.02.2009 16:40 1,3 C 54 % 1026,4 hPa 0,0 mm 0,0 km/h (0 Bft) O-SO 112 10 min 0 UV-I 174 W/m 3,2 km/h (1 Bft)
18.02.2009 16:50 1,1 C 56 % 1026,3 hPa 0,0 mm 0,0 km/h (0 Bft) NO 45 10 min 0 UV-I 102 W/m 3,2 km/h (1 Bft)
18.02.2009 17:00 0,7 C 56 % 1026,3 hPa 0,0 mm 0,0 km/h (0 Bft) NO 45 10 min 0 UV-I 84 W/m 4,8 km/h (1 Bft)
18.02.2009 17:10 0,8 C 56 % 1026,3 hPa 0,0 mm 0,0 km/h (0 Bft) NO 45 0 min 0 UV-I 33 W/m 3,2 km/h (1 Bft)
18.02.2009 17:20 0,8 C 56 % 1026,4 hPa 0,0 mm 0,0 km/h (0 Bft) W 270 0 min 0 UV-I 18 W/m 4,8 km/h (1 Bft)
18.02.2009 17:30 0,8 C 56 % 1026,5 hPa 0,0 mm 0,0 km/h (0 Bft) W 270 0 min 0 UV-I 11 W/m 1,6 km/h (1 Bft)
18.02.2009 17:40 0,7 C 57 % 1026,5 hPa 0,0 mm 0,0 km/h (0 Bft) W-NW 292 0 min 0 UV-I 9 W/m 1,6 km/h (1 Bft)
18.02.2009 17:50 0,6 C 58 % 1026,5 hPa 0,0 mm 0,0 km/h (0 Bft) N 0 0 min 0 UV-I 5 W/m 0,0 km/h (0 Bft)
18.02.2009 18:00 0,4 C 59 % 1026,6 hPa 0,0 mm 0,0 km/h (0 Bft) N 0 0 min 0 UV-I 0 W/m 0,0 km/h (0 Bft)
18.02.2009 18:10 0,2 C 61 % 1026,6 hPa 0,0 mm 0,0 km/h (0 Bft) W-NW 292 0 min 0 UV-I 0 W/m 1,6 km/h (1 Bft)
18.02.2009 18:20 -0,1 C 63 % 1026,7 hPa 0,0 mm 0,0 km/h (0 Bft) W 270 0 min 0 UV-I 0 W/m 1,6 km/h (1 Bft)
18.02.2009 18:30 -0,4 C 64 % 1026,7 hPa 0,0 mm 0,0 km/h (0 Bft) W 281 0 min 0 UV-I 0 W/m 0,0 km/h (0 Bft)
18.02.2009 18:40 -0,5 C 65 % 1026,7 hPa 0,3 mm 0,1 km/h (0 Bft) W-NW 282 0 min 0 UV-I 0 W/m 1,6 km/h (1 Bft)
18.02.2009 18:50 -0,6 C 66 % 1026,7 hPa 0,0 mm 0,2 km/h (0 Bft) W-NW 284 0 min 0 UV-I 0 W/m 3,2 km/h (1 Bft)
18.02.2009 19:00 -0,7 C 66 % 1026,7 hPa 0,0 mm 0,4 km/h (0 Bft) W-NW 294 0 min 0 UV-I 0 W/m 3,2 km/h (1 Bft)
18.02.2009 19:10 -0,7 C 65 % 1026,7 hPa 0,0 mm 0,1 km/h (0 Bft) W-NW 294 0 min 0 UV-I 0 W/m 1,6 km/h (1 Bft)
18.02.2009 19:20 -0,7 C 65 % 1026,7 hPa 0,0 mm 0,1 km/h (0 Bft) W-NW 294 0 min 0 UV-I 0 W/m 3,2 km/h (1 Bft)
18.02.2009 19:30 -0,7 C 66 % 1026,6 hPa 0,0 mm 0,1 km/h (0 Bft) W-NW 294 0 min 0 UV-I 0 W/m 1,6 km/h (1 Bft)
18.02.2009 19:40 -0,7 C 66 % 1026,4 hPa 0,0 mm 0,7 km/h (0 Bft) W-NW 294 0 min 0 UV-I 0 W/m 3,2 km/h (1 Bft)
18.02.2009 19:50 -0,7 C 66 % 1026,3 hPa 0,0 mm 0,4 km/h (0 Bft) W-NW 294 0 min 0 UV-I 0 W/m 3,2 km/h (1 Bft)
18.02.2009 20:00 -0,8 C 66 % 1026,4 hPa 0,0 mm 1,0 km/h (0 Bft) O-NO 69 0 min 0 UV-I 0 W/m 3,2 km/h (1 Bft)
18.02.2009 20:10 -0,8 C 66 % 1026,3 hPa 0,0 mm 0,0 km/h (0 Bft) O-NO 67 0 min 0 UV-I 0 W/m 3,2 km/h (1 Bft)
18.02.2009 20:20 -0,8 C 66 % 1026,3 hPa 0,0 mm 0,0 km/h (0 Bft) O-NO 67 0 min 0 UV-I 0 W/m 3,2 km/h (1 Bft)
18.02.2009 20:30 -0,8 C 66 % 1026,2 hPa 0,0 mm 0,0 km/h (0 Bft) O-NO 67 0 min 0 UV-I 0 W/m 3,2 km/h (1 Bft)
18.02.2009 20:40 -0,8 C 66 % 1026,2 hPa 0,0 mm 0,0 km/h (0 Bft) O-NO 67 0 min 0 UV-I 0 W/m 1,6 km/h (1 Bft)
18.02.2009 20:50 -0,8 C 66 % 1026,2 hPa 0,0 mm 0,0 km/h (0 Bft) O-NO 67 0 min 0 UV-I 0 W/m 1,6 km/h (1 Bft)
18.02.2009 21:00 -0,8 C 66 % 1026,2 hPa 0,0 mm 0,0 km/h (0 Bft) N 0 0 min 0 UV-I 0 W/m 0,0 km/h (0 Bft)
18.02.2009 21:10 -0,8 C 66 % 1026,1 hPa 0,0 mm 0,0 km/h (0 Bft) O-NO 67 0 min 0 UV-I 0 W/m 1,6 km/h (1 Bft)
18.02.2009 21:20 -0,8 C 67 % 1026,1 hPa 0,0 mm 0,0 km/h (0 Bft) O-NO 67 0 min 0 UV-I 0 W/m 1,6 km/h (1 Bft)
18.02.2009 21:30 -0,8 C 67 % 1026,1 hPa 0,0 mm 0,0 km/h (0 Bft) O-NO 67 0 min 0 UV-I 0 W/m 1,6 km/h (1 Bft)
18.02.2009 21:40 -0,8 C 68 % 1026,1 hPa 0,0 mm 0,0 km/h (0 Bft) O-NO 67 0 min 0 UV-I 0 W/m 3,2 km/h (1 Bft)
18.02.2009 21:50 -0,9 C 68 % 1026,1 hPa 0,0 mm 0,0 km/h (0 Bft) O 90 0 min 0 UV-I 0 W/m 3,2 km/h (1 Bft)
18.02.2009 22:00 -0,9 C 68 % 1026,1 hPa 0,0 mm 0,0 km/h (0 Bft) N 0 0 min 0 UV-I 0 W/m 0,0 km/h (0 Bft)
18.02.2009 22:10 -0,9 C 69 % 1026,1 hPa 0,0 mm 0,0 km/h (0 Bft) O 90 0 min 0 UV-I 0 W/m 3,2 km/h (1 Bft)
18.02.2009 22:20 -1,0 C 69 % 1026,0 hPa 0,0 mm 0,0 km/h (0 Bft) O 90 0 min 0 UV-I 0 W/m 1,6 km/h (1 Bft)
18.02.2009 22:30 -1,0 C 68 % 1026,0 hPa 0,0 mm 0,0 km/h (0 Bft) SO 135 0 min 0 UV-I 0 W/m 4,8 km/h (1 Bft)
18.02.2009 22:40 -1,1 C 69 % 1026,0 hPa 0,0 mm 0,0 km/h (0 Bft) N 0 0 min 0 UV-I 0 W/m 0,0 km/h (0 Bft)
18.02.2009 22:50 -1,1 C 69 % 1026,0 hPa 0,0 mm 0,0 km/h (0 Bft) SO 135 0 min 0 UV-I 0 W/m 1,6 km/h (1 Bft)
18.02.2009 23:00 -1,1 C 69 % 1025,9 hPa 0,0 mm 0,0 km/h (0 Bft) N 0 0 min 0 UV-I 0 W/m 0,0 km/h (0 Bft)
18.02.2009 23:10 -1,2 C 69 % 1025,8 hPa 0,0 mm 0,0 km/h (0 Bft) N 0 0 min 0 UV-I 0 W/m 0,0 km/h (0 Bft)
18.02.2009 23:20 -1,2 C 70 % 1025,8 hPa 0,0 mm 0,0 km/h (0 Bft) SO 135 0 min 0 UV-I 0 W/m 1,6 km/h (1 Bft)
18.02.2009 23:30 -1,3 C 70 % 1025,7 hPa 0,0 mm 0,0 km/h (0 Bft) SO 135 0 min 0 UV-I 0 W/m 1,6 km/h (1 Bft)
18.02.2009 23:40 -1,3 C 71 % 1025,7 hPa 0,0 mm 0,0 km/h (0 Bft) SO 135 0 min 0 UV-I 0 W/m 1,6 km/h (1 Bft)
18.02.2009 23:50 -1,3 C 70 % 1025,7 hPa 0,0 mm 0,0 km/h (0 Bft) N 0 0 min 0 UV-I 0 W/m 0,0 km/h (0 Bft)
_ Min-Zeit 07:40 14:50 23:30 - 00:00 - - - - - 00:00
Minimum _ -7,5 C 51 % 1025,7 hPa - 0,0 km/h (0 Bft) - - - - - 0,0 km/h (0 Bft)
_ Max-Zeit 14:10 09:00 08:30 18:40 09:30 - - 09:10 12:00 12:50 12:20
Maximum _ 2,4 C 91 % 1028,8 hPa 0,3 mm 1,6 km/h
O (1 Bft)
- - 10 min 1 UV-I 566 W/m 8,0 km/h
O (2 Bft)
Durchschnitt _ -2,5 C 75 % 1027,4 hPa #0,3 mm 0,4 km/h (0 Bft) O - #7:50 h 1 UV-I 296 W/m 2,5 km/h (1 Bft)